Time;durP1;ratioP1;P1;durP2;ratioP2;P2;SDS_P1;SDS_P2;PMS_P1;PMS_P2;Temp;Humidity;BMP_temperature;BMP_pressure;BME280_temperature;BME280_humidity;BME280_pressure;Samples;Min_cycle;Max_cycle;Signal;HPM_P1;HPM_P2
2022/05/22 00:01:26;;;;;;;4.00;1.80;;;14.80;66.90;;;;;;5048576;28;20029;-68
2022/05/22 00:03:52;;;;;;;4.35;1.70;;;14.80;67.10;;;;;;5038671;28;20143;-67
2022/05/22 00:06:17;;;;;;;4.93;1.80;;;14.80;67.20;;;;;;5042294;28;20173;-68
2022/05/22 00:08:43;;;;;;;3.80;1.60;;;14.80;67.30;;;;;;5039585;28;20584;-69
2022/05/22 00:11:08;;;;;;;4.05;1.83;;;14.80;67.10;;;;;;5044078;28;20029;-68
2022/05/22 00:13:34;;;;;;;3.72;1.58;;;14.80;67.10;;;;;;5043255;28;20017;-67
2022/05/22 00:18:44;;;;;;;3.28;1.50;;;14.60;67.10;;;;;;5040880;28;20033;-66
2022/05/22 00:21:10;;;;;;;2.92;1.75;;;14.60;67.30;;;;;;5045009;28;20021;-67
2022/05/22 00:23:35;;;;;;;2.70;1.55;;;14.50;67.30;;;;;;5038247;28;20373;-66
2022/05/22 00:26:01;;;;;;;4.50;1.60;;;14.50;67.40;;;;;;5043799;28;20081;-67
2022/05/22 00:28:26;;;;;;;3.80;1.70;;;14.50;67.40;;;;;;5046213;28;20036;-67
2022/05/22 00:30:52;;;;;;;4.25;1.70;;;14.50;67.50;;;;;;5048090;28;20024;-67
2022/05/22 00:33:17;;;;;;;2.97;1.55;;;14.40;67.30;;;;;;5037266;28;20030;-66
2022/05/22 00:35:43;;;;;;;3.83;1.70;;;14.40;67.40;;;;;;5048800;28;20065;-67
2022/05/22 00:38:08;;;;;;;2.60;1.65;;;14.40;67.40;;;;;;5045203;28;20037;-68
2022/05/22 00:40:34;;;;;;;3.53;1.40;;;14.40;67.50;;;;;;5047860;28;20022;-67
2022/05/22 00:43:01;;;;;;;3.75;1.80;;;14.30;67.60;;;;;;5044472;28;20500;-66
2022/05/22 00:45:27;;;;;;;3.38;1.70;;;14.30;67.70;;;;;;5049146;28;20525;-67
2022/05/22 00:47:53;;;;;;;3.58;1.60;;;14.30;67.70;;;;;;5047164;28;20120;-66
2022/05/22 00:50:21;;;;;;;3.03;1.55;;;14.20;67.70;;;;;;5041252;28;20071;-66
2022/05/22 00:52:53;;;;;;;3.55;1.73;;;14.10;67.90;;;;;;5044901;28;20024;-66
2022/05/22 00:55:26;;;;;;;3.97;1.73;;;14.10;68.10;;;;;;5048538;28;20402;-65
2022/05/22 00:57:56;;;;;;;3.45;1.90;;;14.00;68.30;;;;;;5047366;28;20682;-66
2022/05/22 01:00:26;;;;;;;3.65;1.75;;;13.90;68.50;;;;;;5049026;28;20029;-66
2022/05/22 01:05:36;;;;;;;5.47;2.00;;;13.90;68.60;;;;;;5048208;28;20040;-66
2022/05/22 01:08:02;;;;;;;5.15;2.38;;;13.90;68.50;;;;;;5046616;28;20029;-66
2022/05/22 01:10:39;;;;;;;4.90;1.90;;;13.90;68.50;;;;;;5043630;28;20066;-68
2022/05/22 01:13:06;;;;;;;2.45;1.80;;;13.90;68.50;;;;;;5044380;28;20032;-66
2022/05/22 01:15:32;;;;;;;2.40;1.60;;;13.80;68.70;;;;;;5044356;28;20021;-66
2022/05/22 01:17:58;;;;;;;3.45;1.88;;;13.70;68.90;;;;;;5048085;28;20020;-66
2022/05/22 01:20:23;;;;;;;5.43;2.35;;;13.70;69.10;;;;;;5047353;28;20372;-67
2022/05/22 01:22:49;;;;;;;4.05;2.42;;;13.70;69.10;;;;;;5042472;28;20099;-66
2022/05/22 01:25:14;;;;;;;3.03;1.80;;;13.70;69.00;;;;;;5042167;28;20036;-67
2022/05/22 01:27:40;;;;;;;2.83;1.83;;;13.70;69.00;;;;;;5041307;28;20028;-66
2022/05/22 01:30:09;;;;;;;3.40;1.80;;;13.70;69.00;;;;;;5046765;28;20387;-66
2022/05/22 01:32:36;;;;;;;3.20;1.92;;;13.60;69.10;;;;;;5036959;28;20738;-66
2022/05/22 01:35:02;;;;;;;3.85;2.38;;;13.60;69.30;;;;;;5041696;28;20488;-67
2022/05/22 01:37:27;;;;;;;5.38;2.78;;;13.50;69.70;;;;;;5043975;28;20029;-67
2022/05/22 01:39:53;;;;;;;4.63;2.78;;;13.40;69.70;;;;;;5043346;28;20485;-67
2022/05/22 01:42:18;;;;;;;4.88;2.67;;;13.50;69.70;;;;;;5046156;28;20110;-67
2022/05/22 01:44:44;;;;;;;4.63;2.30;;;13.50;69.70;;;;;;5044240;28;20021;-66
2022/05/22 01:47:09;;;;;;;4.85;2.20;;;13.40;69.70;;;;;;5041240;28;20025;-66
2022/05/22 01:49:35;;;;;;;5.70;2.50;;;13.40;69.80;;;;;;5038020;28;20029;-66
2022/05/22 01:52:00;;;;;;;5.72;2.35;;;13.40;69.70;;;;;;5044882;28;20113;-66
2022/05/22 01:54:26;;;;;;;3.90;2.10;;;13.40;69.70;;;;;;5045574;28;20064;-66
2022/05/22 01:56:51;;;;;;;4.07;2.20;;;13.30;69.70;;;;;;5042255;28;20041;-66
2022/05/22 01:59:17;;;;;;;3.88;2.58;;;13.30;69.90;;;;;;5040302;28;20037;-67
2022/05/22 02:01:42;;;;;;;6.53;2.85;;;13.30;69.90;;;;;;5045392;28;20031;-67
2022/05/22 02:04:08;;;;;;;4.55;2.63;;;13.30;69.90;;;;;;5043887;28;20111;-67
2022/05/22 02:06:33;;;;;;;4.45;2.53;;;13.30;69.80;;;;;;5047380;28;20675;-66
2022/05/22 02:08:59;;;;;;;3.00;2.13;;;13.30;69.70;;;;;;5044786;28;20076;-66
2022/05/22 02:11:24;;;;;;;4.72;2.40;;;13.20;69.70;;;;;;5047761;28;20033;-67
2022/05/22 02:13:51;;;;;;;5.03;2.47;;;13.20;69.90;;;;;;5046142;28;20071;-67
2022/05/22 02:16:16;;;;;;;4.70;2.50;;;13.20;70.00;;;;;;5044542;28;20116;-66
2022/05/22 02:18:42;;;;;;;4.18;2.53;;;13.10;70.20;;;;;;5039168;28;20108;-66
2022/05/22 02:21:08;;;;;;;5.85;2.60;;;13.10;70.30;;;;;;5049022;28;20100;-66
2022/05/22 02:23:35;;;;;;;5.75;2.80;;;13.10;70.30;;;;;;5041989;28;20099;-67
2022/05/22 02:26:00;;;;;;;6.78;3.13;;;13.00;70.20;;;;;;5050347;28;20086;-67
2022/05/22 02:28:27;;;;;;;4.65;2.92;;;13.00;70.30;;;;;;5042951;28;20029;-67
2022/05/22 02:30:57;;;;;;;5.25;2.83;;;13.00;70.30;;;;;;5044134;28;20032;-67
2022/05/22 02:33:23;;;;;;;4.63;2.90;;;13.10;70.20;;;;;;5043152;28;20036;-68
2022/05/22 02:35:50;;;;;;;4.00;2.40;;;13.00;70.10;;;;;;5039088;28;20069;-67
2022/05/22 02:38:16;;;;;;;5.35;2.70;;;13.00;70.00;;;;;;5046906;28;20557;-67
2022/05/22 02:40:42;;;;;;;5.03;2.60;;;12.90;70.00;;;;;;5045290;28;20029;-67
2022/05/22 02:43:08;;;;;;;6.97;2.70;;;12.90;70.20;;;;;;5046146;28;20500;-67
2022/05/22 02:45:36;;;;;;;5.07;2.53;;;12.90;70.30;;;;;;5043432;28;20032;-68
2022/05/22 02:48:02;;;;;;;5.15;2.63;;;12.90;70.30;;;;;;5039682;28;20028;-68
2022/05/22 02:50:30;;;;;;;3.67;2.60;;;12.80;70.30;;;;;;5042655;28;20128;-68
2022/05/22 02:52:55;;;;;;;4.95;2.47;;;12.80;70.40;;;;;;5045967;28;20021;-68
2022/05/22 02:55:22;;;;;;;4.18;2.00;;;12.80;70.40;;;;;;5046058;28;20044;-68
2022/05/22 02:57:47;;;;;;;4.65;2.10;;;12.80;70.40;;;;;;5047831;28;20052;-67
2022/05/22 03:00:20;;;;;;;4.47;2.20;;;12.80;70.40;;;;;;5040790;28;20029;-67
2022/05/22 03:02:46;;;;;;;3.33;1.92;;;12.70;70.40;;;;;;5038949;28;20119;-67
2022/05/22 03:05:12;;;;;;;2.97;2.03;;;12.70;70.30;;;;;;5047241;28;20530;-68
2022/05/22 03:07:38;;;;;;;2.85;1.80;;;12.70;70.40;;;;;;5041101;28;20029;-69
2022/05/22 03:10:06;;;;;;;3.83;1.95;;;12.70;70.30;;;;;;5044306;28;20040;-68
2022/05/22 03:12:31;;;;;;;3.33;1.88;;;12.70;70.30;;;;;;5037540;28;20027;-68
2022/05/22 03:14:59;;;;;;;3.33;1.77;;;12.70;70.40;;;;;;5047376;28;20017;-68
2022/05/22 03:17:25;;;;;;;5.97;2.15;;;12.70;70.30;;;;;;5041406;28;20026;-67
2022/05/22 03:19:51;;;;;;;3.38;1.75;;;12.60;70.20;;;;;;5046165;28;20902;-67
2022/05/22 03:22:17;;;;;;;2.72;1.65;;;12.60;70.30;;;;;;5045684;28;20033;-67
2022/05/22 03:24:43;;;;;;;4.95;1.98;;;12.60;70.30;;;;;;5039270;28;20091;-67
2022/05/22 03:27:11;;;;;;;3.00;1.77;;;12.60;70.30;;;;;;5045587;28;20025;-66
2022/05/22 03:29:38;;;;;;;2.28;1.60;;;12.50;70.40;;;;;;5038646;28;20025;-66
2022/05/22 03:32:04;;;;;;;3.00;2.00;;;12.50;70.60;;;;;;5046894;28;20098;-67
2022/05/22 03:34:30;;;;;;;5.13;1.70;;;12.50;71.30;;;;;;5038898;28;20041;-66
2022/05/22 03:36:56;;;;;;;4.68;1.73;;;12.50;70.60;;;;;;5033295;28;20025;-67
2022/05/22 03:39:22;;;;;;;3.05;1.80;;;12.50;70.50;;;;;;5039725;28;20060;-69
2022/05/22 03:41:48;;;;;;;3.88;1.70;;;12.50;70.50;;;;;;5052303;28;20025;-67
2022/05/22 03:44:14;;;;;;;4.07;2.05;;;12.50;70.50;;;;;;5045938;28;20057;-68
2022/05/22 03:46:39;;;;;;;4.60;1.85;;;12.50;70.60;;;;;;5049208;28;20448;-67
2022/05/22 03:49:05;;;;;;;4.65;1.80;;;12.60;70.50;;;;;;5041080;28;20078;-66
2022/05/22 03:51:31;;;;;;;4.75;1.65;;;12.50;70.40;;;;;;5048905;28;20483;-67
2022/05/22 03:53:57;;;;;;;3.78;1.50;;;12.50;70.50;;;;;;5045772;28;20020;-67
2022/05/22 03:56:23;;;;;;;4.13;1.70;;;12.50;70.50;;;;;;5047992;28;20025;-67
2022/05/22 03:58:49;;;;;;;3.63;1.95;;;12.50;70.50;;;;;;5048633;28;20663;-66
2022/05/22 04:01:14;;;;;;;4.18;1.60;;;12.50;70.50;;;;;;5043288;28;20028;-67
2022/05/22 04:03:40;;;;;;;2.63;1.45;;;12.60;70.50;;;;;;5037645;28;20116;-67
2022/05/22 04:06:08;;;;;;;3.60;1.80;;;12.60;70.60;;;;;;5043804;28;20503;-66
2022/05/22 04:08:34;;;;;;;3.83;1.60;;;12.50;70.70;;;;;;5046586;28;20025;-67
2022/05/22 04:11:12;;;;;;;4.43;1.50;;;12.50;70.80;;;;;;5048327;28;20025;-67
2022/05/22 04:13:38;;;;;;;2.20;1.58;;;12.50;71.10;;;;;;5048862;28;20031;-67
2022/05/22 04:16:04;;;;;;;2.17;1.50;;;12.40;71.10;;;;;;5045077;28;20033;-67
2022/05/22 04:18:30;;;;;;;3.35;1.52;;;12.50;71.20;;;;;;5048961;28;20029;-67
2022/05/22 04:20:55;;;;;;;4.07;1.67;;;12.50;71.30;;;;;;5050580;28;20060;-67
2022/05/22 04:26:07;;;;;;;2.95;1.65;;;12.50;71.20;;;;;;5044171;28;20502;-69
2022/05/22 04:28:33;;;;;;;3.45;1.48;;;12.50;71.30;;;;;;5040150;28;20115;-67
2022/05/22 04:30:59;;;;;;;2.85;1.45;;;12.60;71.40;;;;;;5048325;28;20033;-66
2022/05/22 04:33:24;;;;;;;3.33;1.50;;;12.60;71.40;;;;;;5043789;28;20029;-67
2022/05/22 04:35:51;;;;;;;2.78;1.50;;;12.60;71.50;;;;;;5046230;28;20464;-66
2022/05/22 04:38:17;;;;;;;5.97;1.58;;;12.70;71.50;;;;;;5042622;28;20033;-67
2022/05/22 04:40:43;;;;;;;2.28;1.48;;;12.80;71.40;;;;;;5046866;28;20390;-67
2022/05/22 04:43:11;;;;;;;3.95;1.80;;;12.90;71.10;;;;;;5046451;28;20103;-68
2022/05/22 04:45:40;;;;;;;3.83;1.80;;;13.00;70.90;;;;;;5044539;28;20029;-68
2022/05/22 04:48:06;;;;;;;3.58;1.58;;;13.10;70.70;;;;;;5044196;28;20112;-67
2022/05/22 04:50:32;;;;;;;3.97;1.55;;;13.20;70.60;;;;;;5031512;28;20029;-68
2022/05/22 04:52:58;;;;;;;4.35;2.15;;;13.30;70.50;;;;;;5040892;28;20101;-67
2022/05/22 04:55:24;;;;;;;4.20;2.10;;;13.40;70.40;;;;;;5044306;28;20104;-67
2022/05/22 04:57:49;;;;;;;4.25;2.13;;;13.60;70.20;;;;;;5042461;28;20467;-67
2022/05/22 05:00:16;;;;;;;3.63;2.13;;;13.70;70.00;;;;;;5040236;28;20693;-68
2022/05/22 05:02:41;;;;;;;5.80;2.55;;;14.10;69.90;;;;;;5037915;28;20664;-67
2022/05/22 05:05:10;;;;;;;6.18;2.60;;;14.80;68.70;;;;;;5041910;28;20025;-67
2022/05/22 05:07:37;;;;;;;4.10;2.58;;;15.50;67.00;;;;;;5042171;28;20025;-67
2022/05/22 05:10:04;;;;;;;5.80;3.20;;;16.20;66.00;;;;;;5046999;28;20025;-67
2022/05/22 05:12:29;;;;;;;4.15;3.00;;;16.90;63.50;;;;;;5046570;28;20101;-67
2022/05/22 05:14:55;;;;;;;6.85;3.30;;;17.60;62.40;;;;;;5046633;28;20108;-68
2022/05/22 05:17:20;;;;;;;7.55;3.13;;;18.10;60.20;;;;;;5041758;28;20119;-67
2022/05/22 05:19:46;;;;;;;3.67;2.40;;;18.50;58.80;;;;;;5041125;28;20084;-67
2022/05/22 05:22:11;;;;;;;5.05;2.70;;;18.90;58.00;;;;;;5048990;28;20029;-66
2022/05/22 05:24:38;;;;;;;5.55;2.83;;;19.40;57.00;;;;;;5042315;28;20025;-69
2022/05/22 05:27:04;;;;;;;6.65;3.08;;;19.80;55.90;;;;;;5035268;28;20030;-67
2022/05/22 05:29:29;;;;;;;5.47;2.90;;;20.00;55.10;;;;;;5038288;28;20553;-68
2022/05/22 05:31:55;;;;;;;5.00;2.53;;;20.20;54.40;;;;;;5046841;28;20025;-69
2022/05/22 05:34:21;;;;;;;5.65;2.90;;;20.50;54.20;;;;;;5050148;28;20045;-67
2022/05/22 05:36:46;;;;;;;2.92;1.88;;;20.80;53.60;;;;;;5052033;28;20430;-67
2022/05/22 05:39:12;;;;;;;4.90;2.45;;;21.10;53.00;;;;;;5047216;28;20033;-68
2022/05/22 05:41:38;;;;;;;5.20;2.75;;;21.60;52.50;;;;;;5043893;28;20033;-68
2022/05/22 05:44:06;;;;;;;6.05;2.67;;;21.80;51.70;;;;;;5045560;28;20033;-67
2022/05/22 05:46:36;;;;;;;4.93;2.50;;;22.10;51.10;;;;;;5040869;28;20028;-69
2022/05/22 05:49:05;;;;;;;5.22;2.60;;;22.10;50.40;;;;;;5047843;28;20025;-68
2022/05/22 05:51:31;;;;;;;4.90;2.67;;;22.40;50.40;;;;;;5045621;28;20025;-71
2022/05/22 05:53:57;;;;;;;3.78;2.10;;;22.40;49.70;;;;;;5040262;28;20395;-69
2022/05/22 05:56:23;;;;;;;4.93;2.22;;;22.50;49.60;;;;;;5044217;28;20283;-69
2022/05/22 05:58:49;;;;;;;5.00;1.90;;;22.60;49.50;;;;;;5046234;28;20078;-68
2022/05/22 06:01:17;;;;;;;7.00;2.22;;;22.80;49.20;;;;;;5036953;28;20033;-68
2022/05/22 06:03:44;;;;;;;4.57;2.13;;;23.10;48.70;;;;;;5046487;28;20026;-68
2022/05/22 06:06:10;;;;;;;6.03;2.40;;;23.00;47.80;;;;;;5047847;28;20025;-68
2022/05/22 06:08:36;;;;;;;4.47;2.28;;;22.90;48.30;;;;;;5050119;28;20488;-68
2022/05/22 06:11:02;;;;;;;4.55;1.63;;;22.80;48.00;;;;;;5043637;28;20024;-67
2022/05/22 06:13:28;;;;;;;5.63;2.30;;;22.90;48.10;;;;;;5042341;28;20025;-67
2022/05/22 06:15:53;;;;;;;3.95;2.00;;;22.80;47.80;;;;;;5047654;28;20020;-67
2022/05/22 06:18:20;;;;;;;4.85;1.83;;;22.60;48.60;;;;;;5046366;28;20025;-68
2022/05/22 06:20:46;;;;;;;4.35;1.80;;;22.50;48.30;;;;;;5049233;28;20024;-67
2022/05/22 06:23:12;;;;;;;2.78;2.00;;;22.60;48.40;;;;;;5046649;28;20021;-67
2022/05/22 06:25:39;;;;;;;3.88;1.90;;;22.50;48.40;;;;;;5040459;28;20032;-67
2022/05/22 06:28:05;;;;;;;4.60;1.80;;;22.40;48.70;;;;;;5031013;28;20030;-67
2022/05/22 06:30:31;;;;;;;5.80;2.13;;;21.90;49.70;;;;;;5039496;28;20503;-65
2022/05/22 06:32:57;;;;;;;4.47;1.83;;;21.50;50.60;;;;;;5044131;28;20025;-66
2022/05/22 06:35:23;;;;;;;4.10;1.60;;;21.10;51.60;;;;;;5045114;28;20550;-66
2022/05/22 06:37:48;;;;;;;4.05;1.63;;;20.60;52.10;;;;;;5048535;28;20025;-67
2022/05/22 06:40:14;;;;;;;3.88;1.60;;;20.40;53.10;;;;;;5046223;28;20506;-67
2022/05/22 06:42:42;;;;;;;4.82;1.70;;;20.20;53.50;;;;;;5040030;28;20400;-66
2022/05/22 06:45:17;;;;;;;5.35;1.60;;;20.10;53.90;;;;;;5041989;28;20051;-67
2022/05/22 06:47:44;;;;;;;4.43;2.08;;;20.00;53.80;;;;;;5039396;28;20032;-67
2022/05/22 06:50:12;;;;;;;3.85;1.58;;;19.80;53.90;;;;;;5043083;28;20113;-67
2022/05/22 06:52:38;;;;;;;3.97;1.75;;;19.80;54.50;;;;;;5039709;28;20029;-67
2022/05/22 06:55:05;;;;;;;4.22;1.77;;;19.70;54.40;;;;;;5040250;28;20486;-68
2022/05/22 06:57:31;;;;;;;3.40;1.70;;;19.70;54.50;;;;;;5043163;28;20081;-67
2022/05/22 06:59:58;;;;;;;6.30;2.60;;;19.80;54.70;;;;;;5040362;28;20082;-66
2022/05/22 07:02:27;;;;;;;5.60;2.13;;;19.70;54.10;;;;;;5043141;28;20108;-67
2022/05/22 07:04:55;;;;;;;4.22;1.67;;;19.60;54.40;;;;;;5037728;28;20430;-67
2022/05/22 07:07:21;;;;;;;8.05;2.38;;;19.50;54.80;;;;;;5044377;28;20062;-68
2022/05/22 07:09:47;;;;;;;5.30;2.25;;;19.40;54.80;;;;;;5044587;28;20036;-66
2022/05/22 07:12:14;;;;;;;4.85;2.13;;;19.60;55.00;;;;;;5044278;28;20103;-66
2022/05/22 07:14:39;;;;;;;7.15;2.75;;;19.50;54.90;;;;;;5048539;28;20063;-66
2022/05/22 07:17:06;;;;;;;6.10;2.15;;;19.40;54.50;;;;;;5046833;28;20032;-67
2022/05/22 07:19:37;;;;;;;5.97;1.90;;;19.30;55.00;;;;;;5042824;28;20036;-66
2022/05/22 07:22:04;;;;;;;7.30;2.55;;;19.50;55.30;;;;;;5045284;28;20449;-66
2022/05/22 07:24:30;;;;;;;4.10;1.80;;;19.70;54.80;;;;;;5046627;28;20037;-66
2022/05/22 07:26:55;;;;;;;4.63;1.85;;;19.90;54.20;;;;;;5044652;28;20025;-67
2022/05/22 07:29:21;;;;;;;5.88;1.90;;;20.10;53.50;;;;;;5047002;28;20032;-66
2022/05/22 07:31:46;;;;;;;4.50;1.80;;;20.10;53.10;;;;;;5045244;28;20478;-67
2022/05/22 07:34:12;;;;;;;4.15;2.00;;;20.20;53.10;;;;;;5043963;28;20503;-67
2022/05/22 07:36:38;;;;;;;4.93;1.77;;;20.20;52.00;;;;;;5045658;28;20064;-66
2022/05/22 07:39:04;;;;;;;3.00;1.65;;;20.20;52.50;;;;;;5045567;28;20051;-65
2022/05/22 07:41:31;;;;;;;3.58;1.55;;;20.30;52.50;;;;;;5042069;28;20454;-67
2022/05/22 07:43:58;;;;;;;4.65;1.90;;;20.50;53.00;;;;;;5047882;28;20025;-67
2022/05/22 07:46:24;;;;;;;5.18;2.30;;;20.60;52.30;;;;;;5040671;28;20035;-66
2022/05/22 07:48:50;;;;;;;4.50;1.70;;;20.70;51.60;;;;;;5043288;28;20483;-67
2022/05/22 07:51:15;;;;;;;6.50;1.70;;;20.60;52.00;;;;;;5045772;28;20029;-67
2022/05/22 07:53:41;;;;;;;3.25;1.60;;;20.80;52.00;;;;;;5047050;28;20021;-66
2022/05/22 07:56:08;;;;;;;3.83;1.50;;;21.00;51.50;;;;;;5047093;28;20017;-66
2022/05/22 07:58:34;;;;;;;3.92;1.58;;;21.10;50.90;;;;;;5049388;28;20119;-66
2022/05/22 08:01:00;;;;;;;4.85;1.83;;;21.20;50.20;;;;;;5049531;28;20027;-68
2022/05/22 08:03:27;;;;;;;3.30;1.80;;;21.00;49.50;;;;;;5047630;28;20495;-66
2022/05/22 08:05:54;;;;;;;3.63;1.73;;;21.00;50.20;;;;;;5040339;28;20043;-66
2022/05/22 08:08:19;;;;;;;3.55;1.65;;;21.20;50.20;;;;;;5043230;28;20035;-67
2022/05/22 08:10:45;;;;;;;2.95;1.90;;;21.20;49.90;;;;;;5046329;28;20038;-67
2022/05/22 08:13:12;;;;;;;3.60;2.00;;;21.10;48.90;;;;;;5043537;28;20052;-66
2022/05/22 08:15:39;;;;;;;3.50;1.70;;;20.90;49.10;;;;;;5042344;28;20559;-67
2022/05/22 08:18:07;;;;;;;2.33;1.40;;;21.00;49.20;;;;;;5041394;28;20056;-67
2022/05/22 08:20:36;;;;;;;4.22;1.80;;;21.10;49.00;;;;;;5041853;28;20025;-67
2022/05/22 08:23:05;;;;;;;2.75;1.70;;;21.00;47.80;;;;;;5041447;28;20024;-67
2022/05/22 08:25:31;;;;;;;1.90;1.15;;;20.80;46.30;;;;;;5040630;28;20034;-66
2022/05/22 08:27:58;;;;;;;2.42;1.20;;;20.70;46.90;;;;;;5038715;28;20407;-66
2022/05/22 08:30:25;;;;;;;4.18;1.50;;;20.90;47.70;;;;;;5038284;28;20116;-66
2022/05/22 08:32:52;;;;;;;2.78;1.92;;;21.10;47.90;;;;;;5039274;28;20028;-67
2022/05/22 08:35:23;;;;;;;2.83;1.50;;;21.20;48.10;;;;;;5043602;28;20116;-66
2022/05/22 08:37:49;;;;;;;7.00;2.60;;;21.40;47.80;;;;;;5049061;28;20128;-66
2022/05/22 08:40:16;;;;;;;3.40;1.70;;;21.20;46.70;;;;;;5041647;28;20820;-65
2022/05/22 08:42:46;;;;;;;3.00;1.75;;;20.90;47.50;;;;;;5044093;28;20100;-67
2022/05/22 08:45:17;;;;;;;4.32;1.90;;;21.00;47.80;;;;;;5044925;28;20364;-67
2022/05/22 08:48:07;;;;;;;4.55;2.08;;;21.00;47.00;;;;;;5043839;28;20053;-67
2022/05/22 08:50:35;;;;;;;5.20;1.70;;;20.90;47.20;;;;;;5038279;28;20039;-67
2022/05/22 08:53:32;;;;;;;2.38;1.40;;;20.90;46.30;;;;;;5044542;28;20057;-68
2022/05/22 08:59:07;;;;;;;5.05;2.22;;;21.20;46.40;;;;;;5038507;28;20547;-66
2022/05/22 09:01:43;;;;;;;3.00;1.60;;;21.20;46.20;;;;;;5037289;28;20024;-67
2022/05/22 09:04:11;;;;;;;2.35;1.10;;;21.40;46.40;;;;;;5038532;28;21178;-67
2022/05/22 09:06:50;;;;;;;3.67;1.67;;;21.60;46.20;;;;;;5033804;28;20102;-66
2022/05/22 09:09:16;;;;;;;2.78;1.50;;;21.80;46.10;;;;;;5041172;28;20037;-67
2022/05/22 09:12:02;;;;;;;5.03;2.00;;;21.90;45.90;;;;;;5038108;28;20053;-65
2022/05/22 09:14:42;;;;;;;5.43;1.83;;;21.80;44.90;;;;;;5034433;28;20029;-67
2022/05/22 09:17:18;;;;;;;2.85;1.70;;;21.40;44.80;;;;;;5035252;28;20469;-66
2022/05/22 09:19:48;;;;;;;4.32;1.83;;;21.20;45.50;;;;;;5030335;28;20033;-65
2022/05/22 09:22:21;;;;;;;4.47;1.77;;;21.00;46.10;;;;;;5031475;28;20029;-66
2022/05/22 09:25:15;;;;;;;3.80;1.48;;;21.00;46.00;;;;;;5031603;28;20074;-67
2022/05/22 09:27:49;;;;;;;4.05;1.80;;;21.10;46.60;;;;;;5032078;28;20033;-66
2022/05/22 09:30:41;;;;;;;2.78;1.10;;;21.10;45.80;;;;;;5033595;28;20095;-65
2022/05/22 09:33:33;;;;;;;3.70;1.40;;;21.40;46.30;;;;;;5034616;28;20079;-66
2022/05/22 09:36:17;;;;;;;5.50;1.75;;;21.50;45.70;;;;;;5038748;28;20597;-66
2022/05/22 09:38:59;;;;;;;4.70;1.67;;;21.50;45.40;;;;;;5039679;28;20043;-66
2022/05/22 09:41:31;;;;;;;3.97;1.60;;;21.50;45.70;;;;;;5039537;28;20029;-66
2022/05/22 09:44:34;;;;;;;2.22;1.10;;;21.50;45.50;;;;;;5039853;28;20032;-65
2022/05/22 09:47:26;;;;;;;3.95;1.17;;;21.70;45.90;;;;;;5036498;28;20029;-67
2022/05/22 09:50:04;;;;;;;;;;;21.80;45.10;;;;;;5047404;28;20035;-67
2022/05/22 09:53:02;;;;;;;5.68;1.40;;;21.80;44.00;;;;;;5041320;28;19917;-65
2022/05/22 09:55:36;;;;;;;4.10;1.50;;;21.60;43.90;;;;;;5034469;28;20041;-66
2022/05/22 09:58:05;;;;;;;3.80;1.25;;;21.50;44.70;;;;;;5041109;28;20095;-66
2022/05/22 10:00:58;;;;;;;3.22;1.40;;;21.60;44.50;;;;;;5039251;28;20033;-65
2022/05/22 10:04:01;;;;;;;3.38;1.25;;;21.30;44.70;;;;;;5038709;28;20039;-66
2022/05/22 10:06:57;;;;;;;2.50;0.95;;;21.40;45.00;;;;;;5038629;28;20021;-68
2022/05/22 10:09:28;;;;;;;2.92;1.30;;;21.60;45.00;;;;;;5039836;28;20117;-67
2022/05/22 10:12:11;;;;;;;3.17;1.20;;;21.90;44.70;;;;;;5040348;28;20483;-67
2022/05/22 10:15:19;;;;;;;4.90;1.73;;;22.10;44.80;;;;;;5039994;28;20318;-66
2022/05/22 10:18:11;;;;;;;3.20;1.38;;;22.10;44.30;;;;;;5038519;28;20056;-67
2022/05/22 10:20:45;;;;;;;3.40;1.30;;;22.20;44.10;;;;;;5038606;28;20091;-67
2022/05/22 10:23:43;;;;;;;1.77;1.00;;;22.50;43.90;;;;;;5038819;28;20030;-67
2022/05/22 10:26:36;;;;;;;2.13;1.20;;;22.60;43.80;;;;;;5039339;28;20491;-67
2022/05/22 10:29:26;;;;;;;5.35;1.42;;;22.40;43.80;;;;;;5035627;28;20033;-67
2022/05/22 10:32:14;;;;;;;2.25;1.00;;;22.50;43.60;;;;;;5035895;28;20032;-67
2022/05/22 10:34:47;;;;;;;4.70;1.58;;;22.70;44.10;;;;;;5037269;28;20415;-67
2022/05/22 10:37:27;;;;;;;3.08;1.40;;;22.60;43.80;;;;;;5036267;28;20037;-66
2022/05/22 10:39:53;;;;;;;3.55;1.42;;;22.50;44.10;;;;;;5038669;28;20028;-67
2022/05/22 10:45:32;;;;;;;3.88;1.70;;;22.20;44.30;;;;;;5042105;28;20052;-67
2022/05/22 10:48:27;;;;;;;3.25;1.27;;;22.20;44.60;;;;;;5041414;28;20026;-67
2022/05/22 10:51:06;;;;;;;2.63;1.20;;;22.50;44.50;;;;;;5043336;28;20056;-67
2022/05/22 10:53:31;;;;;;;3.28;1.30;;;22.70;43.70;;;;;;5049913;28;20430;-67
2022/05/22 10:56:04;;;;;;;4.00;1.75;;;22.90;43.60;;;;;;5042782;28;20029;-68
2022/05/22 10:58:33;;;;;;;5.00;2.00;;;23.10;43.20;;;;;;5043845;28;20029;-68
2022/05/22 11:01:05;;;;;;;5.30;1.80;;;22.80;42.90;;;;;;5041909;28;20976;-67
2022/05/22 11:03:37;;;;;;;5.43;1.70;;;22.70;43.70;;;;;;5045059;28;20021;-67
2022/05/22 11:06:17;;;;;;;5.10;1.77;;;22.50;44.00;;;;;;5044000;28;20026;-67
2022/05/22 11:08:48;;;;;;;2.45;1.33;;;22.60;44.30;;;;;;5044434;28;20033;-67
2022/05/22 11:11:18;;;;;;;5.00;1.70;;;22.90;44.20;;;;;;5039359;28;20035;-69
2022/05/22 11:13:45;;;;;;;3.97;1.55;;;22.90;43.50;;;;;;5045322;28;20391;-68
2022/05/22 11:16:26;;;;;;;3.50;1.90;;;22.80;43.20;;;;;;5043902;28;20029;-67
2022/05/22 11:19:10;;;;;;;3.97;1.50;;;22.60;43.10;;;;;;5042688;28;20043;-68
2022/05/22 11:21:53;;;;;;;2.88;1.40;;;22.50;43.60;;;;;;5041293;28;20025;-68
2022/05/22 11:24:23;;;;;;;3.67;1.40;;;22.50;44.00;;;;;;5045257;28;20033;-67
2022/05/22 11:27:00;;;;;;;3.47;1.42;;;22.50;43.90;;;;;;5040951;28;20024;-68
2022/05/22 11:29:57;;;;;;;4.57;1.70;;;22.50;44.30;;;;;;5041347;28;20032;-68
2022/05/22 11:32:39;;;;;;;4.68;1.58;;;22.50;43.60;;;;;;5041671;28;20025;-68
2022/05/22 11:35:26;;;;;;;4.05;1.25;;;22.50;44.00;;;;;;5049306;28;20483;-68
2022/05/22 11:38:12;;;;;;;3.60;1.60;;;22.70;44.00;;;;;;5048218;28;20033;-67
2022/05/22 11:40:54;;;;;;;3.58;1.50;;;22.90;43.50;;;;;;5052859;28;20036;-67
2022/05/22 11:43:42;;;;;;;3.25;1.27;;;23.00;43.30;;;;;;5042238;28;20103;-68
2022/05/22 11:46:28;;;;;;;2.92;1.30;;;23.00;43.30;;;;;;5052469;28;20025;-67
2022/05/22 11:49:43;;;;;;;2.38;1.50;;;23.20;43.50;;;;;;5051041;28;20048;-67
2022/05/22 11:55:27;;;;;;;4.38;1.60;;;23.60;42.80;;;;;;5052259;28;20414;-67
2022/05/22 11:58:23;;;;;;;3.53;1.60;;;23.50;41.90;;;;;;5048164;28;20017;-67
2022/05/22 12:01:10;;;;;;;4.93;2.50;;;23.80;42.40;;;;;;5051668;28;20029;-68
2022/05/22 12:03:41;;;;;;;4.88;1.92;;;23.60;41.50;;;;;;5043630;28;20055;-68
2022/05/22 12:06:06;;;;;;;4.20;1.90;;;23.40;42.20;;;;;;5051375;28;20021;-68
2022/05/22 12:08:37;;;;;;;2.90;1.50;;;23.40;42.30;;;;;;5048362;28;20116;-68
2022/05/22 12:11:27;;;;;;;5.22;1.95;;;23.50;42.60;;;;;;5041940;28;20024;-69
2022/05/22 12:13:58;;;;;;;4.55;1.80;;;23.60;42.10;;;;;;5054671;28;20029;-67
2022/05/22 12:16:29;;;;;;;4.53;2.22;;;23.90;41.80;;;;;;5056554;28;20049;-68
2022/05/22 12:19:01;;;;;;;4.90;2.00;;;23.90;41.40;;;;;;5062637;28;20036;-68
2022/05/22 12:21:39;;;;;;;3.10;1.73;;;24.00;41.40;;;;;;5060385;28;20033;-67
2022/05/22 12:24:38;;;;;;;3.95;1.75;;;24.20;41.10;;;;;;5051659;28;20029;-66
2022/05/22 12:27:33;;;;;;;3.58;1.90;;;24.50;41.10;;;;;;5046670;28;20061;-67
2022/05/22 12:30:09;;;;;;;5.68;2.20;;;25.00;40.20;;;;;;5038427;28;20057;-67
2022/05/22 12:32:46;;;;;;;5.03;2.80;;;25.30;39.60;;;;;;5044895;28;20025;-69
2022/05/22 12:35:13;;;;;;;6.35;2.95;;;25.20;39.00;;;;;;5046169;28;20100;-68
2022/05/22 12:38:00;;;;;;;6.88;2.80;;;25.20;38.20;;;;;;5050310;28;20104;-66
2022/05/22 12:40:47;;;;;;;5.03;2.13;;;25.30;38.20;;;;;;5047079;28;20373;-68
2022/05/22 12:43:17;;;;;;;6.05;2.78;;;25.50;38.50;;;;;;5042642;28;20021;-68
2022/05/22 12:45:46;;;;;;;4.18;2.40;;;25.20;38.10;;;;;;5051865;28;20020;-67
2022/05/22 12:48:23;;;;;;;6.20;2.60;;;25.00;38.50;;;;;;5048772;28;20051;-67
2022/05/22 12:50:54;;;;;;;4.75;2.42;;;24.90;39.00;;;;;;5059084;28;20067;-68
2022/05/22 12:53:29;;;;;;;3.80;2.10;;;25.10;38.80;;;;;;5051326;28;20044;-69
2022/05/22 12:55:56;;;;;;;3.45;2.00;;;25.30;38.70;;;;;;5068732;28;20051;-68
2022/05/22 12:58:39;;;;;;;3.72;2.38;;;25.50;38.70;;;;;;5040550;28;20437;-68
2022/05/22 13:01:39;;;;;;;4.00;2.40;;;25.10;38.60;;;;;;5049822;28;20021;-67
2022/05/22 13:04:17;;;;;;;5.22;2.25;;;24.80;39.00;;;;;;5044635;28;20029;-69
2022/05/22 13:06:49;;;;;;;4.40;2.50;;;24.60;39.70;;;;;;5052580;28;20054;-66
2022/05/22 13:09:41;;;;;;;;;;;24.60;38.80;;;;;;5048737;28;20499;-67
2022/05/22 13:12:12;;;;;;;5.30;3.03;;;24.70;39.10;;;;;;5046202;28;19909;-66
2022/05/22 13:14:47;;;;;;;5.18;2.47;;;24.90;39.10;;;;;;5039865;28;20025;-67
2022/05/22 13:17:15;;;;;;;4.43;1.95;;;25.10;39.00;;;;;;5037481;28;20079;-67
2022/05/22 13:19:52;;;;;;;7.00;2.50;;;25.30;39.00;;;;;;5046582;28;20100;-65
2022/05/22 13:22:25;;;;;;;4.32;2.05;;;25.00;38.40;;;;;;5046507;28;20121;-65
2022/05/22 13:24:51;;;;;;;2.80;1.70;;;24.80;39.00;;;;;;5047432;28;20040;-66